createdAt,value
2023-05-14T00:01:17.100Z,9.38
2023-05-14T00:03:44.115Z,9.40
2023-05-14T00:06:11.189Z,9.38
2023-05-14T00:08:37.951Z,9.18
2023-05-14T00:11:04.907Z,10.02
2023-05-14T00:13:31.641Z,8.73
2023-05-14T00:15:58.464Z,9.23
2023-05-14T00:18:25.270Z,9.38
2023-05-14T00:20:54.961Z,8.70
2023-05-14T00:23:22.704Z,9.55
2023-05-14T00:25:49.989Z,8.63
2023-05-14T00:28:16.674Z,8.75
2023-05-14T00:30:43.398Z,9.85
2023-05-14T00:33:10.269Z,8.50
2023-05-14T00:35:37.218Z,9.40
2023-05-14T00:38:04.248Z,9.18
2023-05-14T00:40:31.064Z,9.23
2023-05-14T00:42:57.868Z,9.10
2023-05-14T00:45:25.761Z,9.68
2023-05-14T00:47:53.596Z,10.32
2023-05-14T00:50:21.504Z,9.68
2023-05-14T00:52:48.935Z,9.35
2023-05-14T00:55:16.779Z,9.70
2023-05-14T00:57:44.222Z,9.55
2023-05-14T01:00:11.349Z,9.65
2023-05-14T01:02:38.299Z,9.40
2023-05-14T01:05:05.823Z,9.23
2023-05-14T01:07:49.387Z,9.95
2023-05-14T01:10:32.700Z,9.60
2023-05-14T01:13:15.074Z,9.80
2023-05-14T01:15:45.019Z,9.60
2023-05-14T01:20:40.729Z,9.82
2023-05-14T01:23:08.224Z,9.60
2023-05-14T01:25:35.455Z,9.65
2023-05-14T01:28:02.558Z,9.75
2023-05-14T01:31:06.239Z,9.55
2023-05-14T01:33:35.083Z,9.30
2023-05-14T01:36:02.137Z,10.15
2023-05-14T01:38:31.812Z,9.55
2023-05-14T01:41:00.406Z,9.85
2023-05-14T01:43:27.480Z,10.30
2023-05-14T01:45:55.616Z,10.63
2023-05-14T01:48:22.640Z,10.02
2023-05-14T01:50:49.449Z,10.50
2023-05-14T01:53:16.412Z,10.20
2023-05-14T01:55:43.165Z,8.93
2023-05-14T01:58:10.123Z,9.40
2023-05-14T02:00:36.850Z,9.25
2023-05-14T02:03:03.864Z,9.20
2023-05-14T02:05:30.991Z,9.82
2023-05-14T02:07:57.853Z,9.85
2023-05-14T02:10:24.846Z,9.23
2023-05-14T02:12:51.860Z,8.95
2023-05-14T02:15:18.806Z,9.07
2023-05-14T02:17:45.755Z,9.82
2023-05-14T02:20:13.146Z,8.48
2023-05-14T02:22:42.384Z,9.40
2023-05-14T02:25:09.759Z,9.05
2023-05-14T02:27:36.567Z,9.25
2023-05-14T02:30:04.620Z,9.23
2023-05-14T02:32:31.464Z,9.45
2023-05-14T02:34:58.390Z,9.55
2023-05-14T02:37:25.202Z,8.70
2023-05-14T02:39:52.371Z,9.15
2023-05-14T02:42:19.405Z,9.38
2023-05-14T02:44:46.610Z,9.70
2023-05-14T02:47:13.402Z,9.65
2023-05-14T02:49:40.452Z,9.93
2023-05-14T02:52:07.417Z,10.43
2023-05-14T02:54:34.466Z,10.52
2023-05-14T02:57:01.258Z,10.43
2023-05-14T02:59:28.011Z,11.30
2023-05-14T03:01:55.203Z,11.02
2023-05-14T03:04:22.460Z,11.77
2023-05-14T03:06:49.426Z,11.02
2023-05-14T03:09:16.288Z,11.32
2023-05-14T03:11:43.156Z,10.38
2023-05-14T03:14:09.966Z,11.85
2023-05-14T03:16:36.861Z,12.80
2023-05-14T03:19:04.110Z,11.10
2023-05-14T03:21:31.871Z,11.07
2023-05-14T03:23:58.754Z,10.90
2023-05-14T03:26:25.493Z,11.63
2023-05-14T03:28:52.975Z,12.20
2023-05-14T03:31:19.749Z,11.10
2023-05-14T03:33:46.903Z,11.75
2023-05-14T03:36:13.681Z,12.20
2023-05-14T03:38:40.496Z,11.32
2023-05-14T03:41:07.234Z,11.20
2023-05-14T03:43:33.994Z,11.45
2023-05-14T03:46:01.074Z,11.80
2023-05-14T03:48:28.007Z,11.50
2023-05-14T03:50:55.058Z,12.35
2023-05-14T03:53:21.782Z,12.75
2023-05-14T03:55:48.506Z,12.13
2023-05-14T03:58:17.432Z,12.30
2023-05-14T04:00:44.404Z,11.98
2023-05-14T04:03:11.972Z,11.98
2023-05-14T04:05:38.899Z,11.75
2023-05-14T04:08:06.254Z,11.68
2023-05-14T04:10:33.108Z,11.75
2023-05-14T04:13:00.596Z,11.30
2023-05-14T04:15:31.730Z,11.20
2023-05-14T04:17:58.864Z,11.20
2023-05-14T04:20:25.946Z,10.93
2023-05-14T04:22:54.257Z,10.55
2023-05-14T04:25:21.014Z,11.02
2023-05-14T04:27:47.746Z,11.13
2023-05-14T04:30:15.009Z,11.57
2023-05-14T04:32:41.873Z,12.05
2023-05-14T04:35:12.930Z,11.13
2023-05-14T04:37:40.517Z,10.95
2023-05-14T04:40:11.159Z,10.63
2023-05-14T04:42:38.776Z,10.38
2023-05-14T04:45:06.813Z,11.15
2023-05-14T04:47:33.800Z,10.27
2023-05-14T04:50:00.605Z,10.23
2023-05-14T04:52:27.461Z,10.45
2023-05-14T04:54:54.467Z,10.60
2023-05-14T04:57:21.210Z,9.50
2023-05-14T04:59:47.947Z,9.98
2023-05-14T05:02:14.671Z,10.75
2023-05-14T05:04:41.474Z,10.30
2023-05-14T05:07:08.245Z,9.40
2023-05-14T05:09:35.224Z,9.52
2023-05-14T05:12:02.045Z,9.20
2023-05-14T05:14:28.782Z,9.68
2023-05-14T05:16:55.494Z,9.63
2023-05-14T05:19:29.127Z,9.18
2023-05-14T05:21:59.383Z,8.60
2023-05-14T05:24:26.193Z,9.35
2023-05-14T05:26:54.016Z,10.00
2023-05-14T05:29:20.690Z,8.93
2023-05-14T05:31:47.725Z,8.70
2023-05-14T05:34:14.554Z,8.80
2023-05-14T05:36:41.423Z,8.57
2023-05-14T05:39:08.134Z,8.85
2023-05-14T05:41:34.886Z,8.77
2023-05-14T05:44:05.025Z,8.95
2023-05-14T05:46:31.847Z,8.30
2023-05-14T05:48:58.552Z,8.75
2023-05-14T05:51:28.239Z,8.93
2023-05-14T05:56:22.138Z,8.82
2023-05-14T05:58:49.014Z,9.15
2023-05-14T06:01:15.696Z,8.77
2023-05-14T06:03:42.440Z,8.65
2023-05-14T06:06:09.207Z,8.95
2023-05-14T06:08:36.048Z,8.68
2023-05-14T06:11:02.807Z,8.82
2023-05-14T06:13:29.554Z,8.02
2023-05-14T06:15:56.283Z,8.60
2023-05-14T06:18:22.974Z,8.30
2023-05-14T06:20:49.701Z,8.50
2023-05-14T06:23:16.470Z,7.90
2023-05-14T06:25:43.231Z,8.13
2023-05-14T06:28:09.915Z,8.07
2023-05-14T06:30:36.601Z,8.30
2023-05-14T06:33:03.560Z,8.13
2023-05-14T06:35:30.281Z,7.30
2023-05-14T06:37:57.060Z,7.63
2023-05-14T06:40:23.931Z,8.02
2023-05-14T06:42:50.816Z,7.38
2023-05-14T06:45:17.643Z,7.90
2023-05-14T06:47:44.509Z,7.00
2023-05-14T06:50:11.292Z,7.40
2023-05-14T06:52:38.336Z,7.30
2023-05-14T06:55:05.401Z,7.10
2023-05-14T06:57:32.164Z,6.95
2023-05-14T06:59:58.834Z,7.35
2023-05-14T07:02:25.613Z,7.40
2023-05-14T07:04:52.368Z,7.35
2023-05-14T07:07:21.218Z,7.50
2023-05-14T07:09:48.291Z,7.20
2023-05-14T07:12:15.107Z,7.35
2023-05-14T07:14:41.853Z,7.68
2023-05-14T07:17:08.591Z,7.35
2023-05-14T07:19:35.289Z,7.25
2023-05-14T07:22:02.071Z,7.20
2023-05-14T07:24:28.825Z,7.80
2023-05-14T07:26:57.300Z,7.30
2023-05-14T07:29:25.511Z,7.25
2023-05-14T07:31:52.478Z,7.38
2023-05-14T07:34:19.600Z,6.20
2023-05-14T07:36:46.844Z,6.20
2023-05-14T07:39:13.624Z,6.00
2023-05-14T07:41:40.407Z,6.22
2023-05-14T07:44:07.264Z,5.65
2023-05-14T07:46:34.179Z,5.00
2023-05-14T07:49:00.891Z,4.80
2023-05-14T07:51:28.579Z,4.63
2023-05-14T07:53:56.043Z,4.35
2023-05-14T07:56:23.074Z,4.18
2023-05-14T07:58:51.023Z,4.30
2023-05-14T08:01:18.116Z,4.70
2023-05-14T08:03:45.127Z,4.40
2023-05-14T08:06:11.994Z,4.40
2023-05-14T08:08:38.704Z,4.40
2023-05-14T08:11:06.209Z,3.92
2023-05-14T08:13:32.917Z,3.78
2023-05-14T08:15:59.680Z,3.90
2023-05-14T08:18:26.452Z,3.80
2023-05-14T08:20:53.237Z,3.90
2023-05-14T08:23:20.808Z,3.65
2023-05-14T08:25:47.537Z,3.80
2023-05-14T08:28:14.190Z,4.22
2023-05-14T08:30:40.965Z,4.10
2023-05-14T08:33:07.746Z,4.10
2023-05-14T08:35:34.546Z,3.88
2023-05-14T08:38:01.324Z,3.70
2023-05-14T08:40:28.473Z,3.60
2023-05-14T08:42:57.052Z,3.85
2023-05-14T08:45:31.662Z,4.57
2023-05-14T08:47:59.456Z,4.40
2023-05-14T08:50:27.580Z,4.28
2023-05-14T08:52:54.546Z,4.30
2023-05-14T08:55:21.807Z,4.60
2023-05-14T08:57:49.090Z,4.90
2023-05-14T09:00:16.087Z,4.80
2023-05-14T09:02:44.495Z,4.47
2023-05-14T09:05:11.395Z,4.97
2023-05-14T09:07:38.815Z,5.95
2023-05-14T09:10:06.272Z,5.68
2023-05-14T09:12:33.015Z,5.38
2023-05-14T09:14:59.651Z,5.75
2023-05-14T09:17:29.690Z,6.05
2023-05-14T09:19:56.563Z,4.93
2023-05-14T09:22:23.359Z,4.90
2023-05-14T09:25:07.454Z,4.70
2023-05-14T09:27:35.313Z,4.90
2023-05-14T09:30:09.774Z,4.57
2023-05-14T09:32:44.067Z,4.00
2023-05-14T09:35:19.265Z,4.20
2023-05-14T09:37:51.148Z,4.22
2023-05-14T09:40:20.557Z,3.78
2023-05-14T09:42:49.218Z,3.95
2023-05-14T09:45:16.962Z,3.45
2023-05-14T09:47:45.008Z,3.58
2023-05-14T09:50:13.322Z,3.20
2023-05-14T09:52:40.295Z,3.22
2023-05-14T09:55:08.052Z,3.60
2023-05-14T09:57:35.722Z,3.08
2023-05-14T10:00:02.613Z,3.20
2023-05-14T10:02:41.360Z,3.20
2023-05-14T10:05:08.985Z,2.80
2023-05-14T10:07:47.702Z,3.20
2023-05-14T10:10:18.757Z,2.95
2023-05-14T10:12:52.404Z,2.80
2023-05-14T10:15:37.048Z,3.10
2023-05-14T10:18:10.472Z,3.30
2023-05-14T10:20:40.093Z,3.00
2023-05-14T10:23:07.803Z,3.33
2023-05-14T10:25:36.599Z,3.63
2023-05-14T10:28:06.050Z,3.13
2023-05-14T10:30:33.045Z,3.35
2023-05-14T10:33:11.976Z,3.40
2023-05-14T10:35:52.501Z,3.27
2023-05-14T10:38:23.284Z,3.03
2023-05-14T10:40:51.595Z,3.78
2023-05-14T10:43:20.354Z,3.78
2023-05-14T10:45:47.613Z,3.95
2023-05-14T10:48:14.630Z,3.75
2023-05-14T10:50:42.111Z,3.80
2023-05-14T10:53:13.429Z,3.65
2023-05-14T10:55:40.247Z,3.60
2023-05-14T10:58:08.075Z,4.25
2023-05-14T11:00:35.734Z,4.10
2023-05-14T11:03:05.159Z,3.78
2023-05-14T11:05:33.033Z,4.05
2023-05-14T11:08:02.290Z,4.03
2023-05-14T11:10:32.311Z,4.13
2023-05-14T11:15:27.039Z,3.88
2023-05-14T11:17:54.399Z,3.30
2023-05-14T11:20:21.946Z,3.90
2023-05-14T11:22:51.723Z,3.72
2023-05-14T11:25:18.998Z,3.58
2023-05-14T11:27:47.535Z,3.58
2023-05-14T11:30:19.279Z,4.13
2023-05-14T11:32:48.932Z,3.80
2023-05-14T11:35:17.009Z,3.70
2023-05-14T11:37:49.497Z,4.38
2023-05-14T11:40:19.325Z,3.83
2023-05-14T11:42:46.185Z,4.10
2023-05-14T11:45:14.421Z,3.72
2023-05-14T11:47:42.793Z,3.88
2023-05-14T11:50:10.072Z,3.45
2023-05-14T11:52:41.643Z,3.60
2023-05-14T11:55:13.075Z,3.65
2023-05-14T11:57:41.044Z,3.55
2023-05-14T12:00:16.972Z,3.53
2023-05-14T12:02:44.054Z,3.25
2023-05-14T12:05:13.625Z,3.33
2023-05-14T12:07:40.646Z,3.33
2023-05-14T12:10:08.122Z,3.35
2023-05-14T12:12:39.904Z,3.05
2023-05-14T12:15:14.128Z,3.08
2023-05-14T12:17:41.282Z,3.30
2023-05-14T12:20:12.495Z,2.97
2023-05-14T12:22:41.653Z,3.28
2023-05-14T12:25:15.673Z,2.95
2023-05-14T12:27:45.306Z,2.83
2023-05-14T12:30:20.767Z,3.10
2023-05-14T12:32:51.899Z,3.28
2023-05-14T12:35:19.052Z,3.30
2023-05-14T12:37:46.054Z,2.90
2023-05-14T12:40:13.254Z,3.50
2023-05-14T12:42:40.094Z,3.22
2023-05-14T12:45:08.720Z,2.80
2023-05-14T12:47:36.458Z,3.10
2023-05-14T12:50:03.767Z,2.70
2023-05-14T12:52:37.842Z,2.67
2023-05-14T12:55:09.960Z,2.28
2023-05-14T12:57:39.059Z,2.33
2023-05-14T13:00:08.494Z,2.40
2023-05-14T13:02:42.932Z,2.33
2023-05-14T13:05:13.747Z,2.17
2023-05-14T13:07:41.080Z,2.33
2023-05-14T13:10:08.548Z,2.60
2023-05-14T13:12:35.523Z,1.90
2023-05-14T13:15:02.253Z,1.90
2023-05-14T13:17:29.178Z,1.67
2023-05-14T13:19:56.160Z,1.80
2023-05-14T13:22:22.971Z,1.90
2023-05-14T13:24:49.669Z,1.83
2023-05-14T13:27:16.432Z,1.95
2023-05-14T13:29:43.140Z,1.50
2023-05-14T13:32:10.047Z,1.90
2023-05-14T13:34:36.879Z,1.80
2023-05-14T13:37:04.110Z,1.80
2023-05-14T13:39:30.921Z,1.73
2023-05-14T13:41:58.144Z,1.50
2023-05-14T13:44:24.985Z,1.77
2023-05-14T13:46:51.922Z,1.60
2023-05-14T13:49:19.103Z,1.80
2023-05-14T13:51:46.057Z,1.73
2023-05-14T13:54:12.798Z,1.90
2023-05-14T13:56:39.564Z,1.80
2023-05-14T13:59:06.432Z,1.92
2023-05-14T14:01:33.418Z,1.70
2023-05-14T14:04:00.518Z,1.70
2023-05-14T14:06:29.974Z,1.85
2023-05-14T14:08:56.653Z,1.75
2023-05-14T14:11:23.484Z,1.70
2023-05-14T14:13:50.275Z,1.50
2023-05-14T14:16:17.129Z,1.42
2023-05-14T14:18:44.105Z,1.60
2023-05-14T14:21:11.232Z,1.60
2023-05-14T14:23:37.919Z,1.60
2023-05-14T14:26:04.656Z,1.58
2023-05-14T14:28:34.444Z,1.50
2023-05-14T14:31:01.167Z,1.70
2023-05-14T14:33:27.968Z,1.42
2023-05-14T14:35:54.750Z,1.40
2023-05-14T14:38:21.438Z,1.10
2023-05-14T14:40:48.163Z,1.27
2023-05-14T14:43:14.897Z,1.30
2023-05-14T14:45:42.879Z,1.70
2023-05-14T14:48:25.161Z,1.88
2023-05-14T14:50:52.860Z,1.58
2023-05-14T14:53:20.709Z,1.40
2023-05-14T14:55:48.714Z,1.27
2023-05-14T14:58:15.473Z,1.80
2023-05-14T15:00:42.405Z,2.00
2023-05-14T15:03:12.019Z,1.60
2023-05-14T15:05:39.053Z,2.05
2023-05-14T15:08:05.823Z,1.90
2023-05-14T15:10:33.029Z,1.70
2023-05-14T15:13:00.080Z,2.33
2023-05-14T15:15:26.811Z,1.70
2023-05-14T15:17:53.605Z,1.52
2023-05-14T15:20:20.398Z,1.90
2023-05-14T15:22:47.275Z,1.80
2023-05-14T15:25:13.998Z,1.88
2023-05-14T15:27:40.871Z,1.70
2023-05-14T15:30:08.130Z,1.95
2023-05-14T15:32:34.983Z,1.80
2023-05-14T15:35:01.986Z,2.00
2023-05-14T15:37:35.890Z,2.03
2023-05-14T15:40:03.226Z,2.03
2023-05-14T15:42:30.712Z,1.73
2023-05-14T15:44:57.641Z,1.90
2023-05-14T15:47:24.377Z,1.73
2023-05-14T15:49:51.332Z,1.90
2023-05-14T15:52:18.174Z,1.77
2023-05-14T15:54:48.673Z,1.90
2023-05-14T15:57:16.960Z,2.10
2023-05-14T15:59:45.470Z,2.10
2023-05-14T16:02:12.908Z,1.60
2023-05-14T16:04:39.582Z,1.98
2023-05-14T16:07:09.919Z,2.05
2023-05-14T16:09:37.060Z,2.10
2023-05-14T16:12:05.100Z,1.70
2023-05-14T16:14:33.865Z,2.03
2023-05-14T16:17:01.894Z,2.00
2023-05-14T16:19:28.787Z,2.10
2023-05-14T16:21:55.568Z,1.88
2023-05-14T16:24:22.420Z,2.00
2023-05-14T16:26:49.158Z,2.10
2023-05-14T16:29:16.035Z,2.10
2023-05-14T16:31:42.823Z,2.17
2023-05-14T16:34:09.586Z,2.30
2023-05-14T16:36:36.323Z,1.80
2023-05-14T16:39:07.490Z,1.98
2023-05-14T16:41:35.554Z,2.47
2023-05-14T16:44:02.533Z,2.15
2023-05-14T16:46:29.596Z,2.25
2023-05-14T16:48:56.617Z,2.33
2023-05-14T16:51:23.388Z,2.17
2023-05-14T16:53:51.266Z,2.42
2023-05-14T16:56:18.639Z,1.90
2023-05-14T16:58:45.375Z,1.88
2023-05-14T17:01:12.241Z,2.20
2023-05-14T17:03:38.958Z,2.33
2023-05-14T17:06:06.034Z,2.10
2023-05-14T17:08:33.732Z,1.80
2023-05-14T17:11:00.635Z,2.17
2023-05-14T17:13:27.476Z,2.22
2023-05-14T17:15:54.286Z,2.30
2023-05-14T17:18:20.953Z,2.50
2023-05-14T17:20:47.668Z,2.45
2023-05-14T17:23:14.611Z,2.33
2023-05-14T17:25:41.428Z,1.92
2023-05-14T17:28:08.442Z,2.05
2023-05-14T17:30:35.175Z,1.90
2023-05-14T17:33:02.040Z,2.25
2023-05-14T17:35:28.841Z,2.40
2023-05-14T17:37:55.792Z,2.20
2023-05-14T17:40:22.580Z,1.98
2023-05-14T17:42:49.424Z,1.95
2023-05-14T17:45:20.637Z,2.05
2023-05-14T17:47:49.134Z,2.40
2023-05-14T17:50:15.873Z,2.40
2023-05-14T17:52:44.282Z,2.17
2023-05-14T17:55:11.192Z,2.15
2023-05-14T17:57:38.034Z,3.30
2023-05-14T18:00:05.287Z,2.70
2023-05-14T18:02:37.551Z,2.30
2023-05-14T18:05:04.629Z,2.42
2023-05-14T18:07:31.400Z,2.55
2023-05-14T18:09:58.387Z,2.50
2023-05-14T18:12:28.768Z,2.70
2023-05-14T18:14:55.794Z,2.72
2023-05-14T18:17:22.658Z,2.85
2023-05-14T18:19:49.497Z,2.80
2023-05-14T18:22:16.236Z,2.75
2023-05-14T18:24:44.351Z,3.08
2023-05-14T18:27:11.465Z,2.97
2023-05-14T18:29:38.431Z,3.65
2023-05-14T18:32:05.585Z,3.47
2023-05-14T18:34:32.262Z,3.38
2023-05-14T18:36:59.129Z,3.63
2023-05-14T18:39:25.846Z,3.30
2023-05-14T18:41:52.943Z,3.28
2023-05-14T18:44:19.662Z,3.40
2023-05-14T18:46:46.456Z,3.78
2023-05-14T18:49:13.185Z,3.63
2023-05-14T18:51:39.958Z,3.97
2023-05-14T18:54:06.815Z,4.10
2023-05-14T18:56:34.905Z,4.05
2023-05-14T18:59:01.712Z,4.25
2023-05-14T19:01:28.576Z,4.45
2023-05-14T19:03:56.195Z,3.90
2023-05-14T19:06:23.235Z,4.70
2023-05-14T19:08:50.275Z,4.45
2023-05-14T19:11:18.163Z,4.10
2023-05-14T19:13:49.659Z,4.68
2023-05-14T19:16:16.596Z,3.92
2023-05-14T19:18:43.677Z,4.30
2023-05-14T19:21:10.464Z,4.18
2023-05-14T19:23:37.301Z,4.80
2023-05-14T19:26:04.159Z,4.40
2023-05-14T19:28:31.006Z,4.68
2023-05-14T19:30:57.811Z,4.53
2023-05-14T19:33:25.986Z,4.22
2023-05-14T19:35:52.882Z,4.90
2023-05-14T19:38:19.785Z,4.57
2023-05-14T19:40:46.742Z,4.60
2023-05-14T19:43:13.637Z,4.95
2023-05-14T19:45:42.671Z,5.38
2023-05-14T19:48:09.580Z,4.97
2023-05-14T19:50:37.148Z,4.57
2023-05-14T19:53:04.590Z,4.97
2023-05-14T19:55:31.414Z,4.93
2023-05-14T19:57:58.168Z,5.32
2023-05-14T20:00:25.104Z,5.03
2023-05-14T20:02:52.127Z,5.55
2023-05-14T20:05:19.086Z,5.20
2023-05-14T20:07:48.954Z,4.97
2023-05-14T20:12:42.491Z,4.93
2023-05-14T20:15:09.801Z,5.45
2023-05-14T20:17:38.196Z,5.07
2023-05-14T20:20:06.920Z,4.55
2023-05-14T20:22:33.635Z,4.32
2023-05-14T20:25:00.432Z,4.20
2023-05-14T20:27:27.210Z,4.05
2023-05-14T20:29:54.350Z,3.88
2023-05-14T20:32:25.091Z,3.83
2023-05-14T20:34:52.060Z,3.88
2023-05-14T20:37:19.860Z,4.30
2023-05-14T20:39:46.934Z,4.55
2023-05-14T20:42:13.778Z,4.32
2023-05-14T20:44:40.487Z,4.10
2023-05-14T20:47:07.376Z,4.07
2023-05-14T20:49:34.099Z,4.60
2023-05-14T20:52:00.749Z,4.60
2023-05-14T20:54:27.547Z,4.47
2023-05-14T20:56:54.197Z,4.18
2023-05-14T20:59:20.944Z,4.88
2023-05-14T21:01:47.832Z,4.93
2023-05-14T21:04:15.269Z,5.30
2023-05-14T21:06:42.292Z,5.00
2023-05-14T21:09:09.042Z,5.10
2023-05-14T21:11:35.784Z,4.80
2023-05-14T21:14:02.590Z,5.25
2023-05-14T21:16:30.630Z,5.63
2023-05-14T21:18:57.434Z,5.45
2023-05-14T21:21:24.384Z,5.32
2023-05-14T21:23:51.071Z,5.35
2023-05-14T21:26:17.859Z,5.15
2023-05-14T21:28:44.592Z,5.30
2023-05-14T21:31:11.379Z,6.07
2023-05-14T21:33:38.208Z,5.80
2023-05-14T21:36:05.288Z,6.70
2023-05-14T21:38:32.600Z,5.43
2023-05-14T21:40:59.720Z,5.43
2023-05-14T21:43:26.992Z,6.05
2023-05-14T21:45:53.981Z,5.70
2023-05-14T21:48:21.753Z,5.85
2023-05-14T21:50:48.657Z,5.18
2023-05-14T21:53:15.513Z,5.50
2023-05-14T21:55:42.444Z,5.60
2023-05-14T21:58:09.492Z,5.90
2023-05-14T22:00:36.183Z,5.78
2023-05-14T22:03:03.169Z,6.13
2023-05-14T22:05:29.912Z,6.10
2023-05-14T22:07:56.969Z,5.45
2023-05-14T22:10:23.830Z,6.43
2023-05-14T22:12:50.700Z,6.60
2023-05-14T22:15:17.451Z,6.25
2023-05-14T22:17:44.269Z,7.13
2023-05-14T22:20:11.377Z,6.95
2023-05-14T22:22:38.555Z,6.70
2023-05-14T22:25:05.759Z,7.28
2023-05-14T22:27:32.514Z,7.28
2023-05-14T22:29:59.475Z,7.50
2023-05-14T22:32:26.641Z,8.85
2023-05-14T22:34:53.507Z,8.57
2023-05-14T22:37:20.310Z,7.03
2023-05-14T22:39:47.084Z,7.38
2023-05-14T22:42:14.141Z,7.15
2023-05-14T22:44:40.934Z,7.28
2023-05-14T22:47:07.803Z,7.45
2023-05-14T22:49:34.649Z,6.50
2023-05-14T22:52:01.461Z,7.38
2023-05-14T22:54:28.303Z,8.57
2023-05-14T22:56:55.127Z,9.05
2023-05-14T22:59:23.606Z,7.90
2023-05-14T23:01:50.850Z,7.68
2023-05-14T23:04:17.680Z,7.68
2023-05-14T23:06:44.654Z,7.22
2023-05-14T23:09:11.416Z,7.20
2023-05-14T23:11:38.218Z,7.45
2023-05-14T23:14:05.029Z,7.70
2023-05-14T23:16:31.978Z,6.97
2023-05-14T23:18:59.044Z,6.88
2023-05-14T23:21:26.063Z,6.82
2023-05-14T23:23:52.867Z,6.60
2023-05-14T23:26:19.613Z,6.55
2023-05-14T23:28:47.496Z,7.40
2023-05-14T23:31:14.298Z,6.60
2023-05-14T23:33:41.143Z,6.57
2023-05-14T23:36:08.531Z,6.82
2023-05-14T23:38:35.504Z,6.43
2023-05-14T23:41:02.397Z,6.55
2023-05-14T23:43:29.180Z,6.45
2023-05-14T23:45:56.226Z,5.70
2023-05-14T23:48:23.183Z,6.53
2023-05-14T23:50:50.028Z,6.43
2023-05-14T23:53:17.382Z,6.20
2023-05-14T23:55:44.288Z,6.30
2023-05-14T23:58:11.090Z,6.60
